sensor_id;sensor_type;location;lat;lon;timestamp;pressure;altitude;pressure_sealevel;temperature;humidity
32324;BME280;25666;44.350;9.222;2022-09-17T00:01:25;100155.81;;;23.26;100.00
32324;BME280;25666;44.350;9.222;2022-09-17T00:03:54;100151.38;;;23.25;100.00
32324;BME280;25666;44.350;9.222;2022-09-17T00:06:21;100150.56;;;23.25;100.00
32324;BME280;25666;44.350;9.222;2022-09-17T00:08:47;100141.38;;;23.21;100.00
32324;BME280;25666;44.350;9.222;2022-09-17T00:11:16;100144.66;;;23.19;100.00
32324;BME280;25666;44.350;9.222;2022-09-17T00:13:43;100141.03;;;23.19;100.00
32324;BME280;25666;44.350;9.222;2022-09-17T00:16:09;100142.28;;;23.18;100.00
32324;BME280;25666;44.350;9.222;2022-09-17T00:18:35;100134.22;;;23.16;100.00
32324;BME280;25666;44.350;9.222;2022-09-17T00:21:05;100137.03;;;23.16;100.00
32324;BME280;25666;44.350;9.222;2022-09-17T00:23:31;100137.50;;;23.15;100.00
32324;BME280;25666;44.350;9.222;2022-09-17T00:25:57;100140.34;;;23.15;100.00
32324;BME280;25666;44.350;9.222;2022-09-17T00:28:23;100134.69;;;23.15;100.00
32324;BME280;25666;44.350;9.222;2022-09-17T00:30:49;100134.69;;;23.15;100.00
32324;BME280;25666;44.350;9.222;2022-09-17T00:33:16;100133.06;;;23.14;100.00
32324;BME280;25666;44.350;9.222;2022-09-17T00:35:42;100131.03;;;23.14;100.00
32324;BME280;25666;44.350;9.222;2022-09-17T00:38:09;100135.13;;;23.13;100.00
32324;BME280;25666;44.350;9.222;2022-09-17T00:40:34;100127.84;;;23.12;100.00
32324;BME280;25666;44.350;9.222;2022-09-17T00:43:00;100112.97;;;23.08;100.00
32324;BME280;25666;44.350;9.222;2022-09-17T00:45:26;100110.22;;;23.05;100.00
32324;BME280;25666;44.350;9.222;2022-09-17T00:48:01;100108.97;;;23.06;100.00
32324;BME280;25666;44.350;9.222;2022-09-17T00:50:36;100111.38;;;23.07;100.00
32324;BME280;25666;44.350;9.222;2022-09-17T00:53:15;100108.63;;;23.04;100.00
32324;BME280;25666;44.350;9.222;2022-09-17T00:55:44;100106.25;;;23.02;100.00
32324;BME280;25666;44.350;9.222;2022-09-17T00:58:14;100101.47;;;22.99;100.00
32324;BME280;25666;44.350;9.222;2022-09-17T01:00:41;100089.31;;;22.99;100.00
32324;BME280;25666;44.350;9.222;2022-09-17T01:03:06;100087.94;;;22.90;100.00
32324;BME280;25666;44.350;9.222;2022-09-17T01:22:04;100088.13;;;22.26;100.00
32324;BME280;25666;44.350;9.222;2022-09-17T01:30:11;100086.00;;;22.14;100.00
32324;BME280;25666;44.350;9.222;2022-09-17T01:32:51;100082.38;;;22.13;100.00
32324;BME280;25666;44.350;9.222;2022-09-17T01:35:20;100074.34;;;21.96;100.00
32324;BME280;25666;44.350;9.222;2022-09-17T01:38:12;100075.03;;;21.67;100.00
32324;BME280;25666;44.350;9.222;2022-09-17T01:41:02;100078.66;;;21.52;100.00
32324;BME280;25666;44.350;9.222;2022-09-17T01:46:31;100074.69;;;21.13;100.00
32324;BME280;25666;44.350;9.222;2022-09-17T01:49:01;100080.66;;;20.96;100.00
32324;BME280;25666;44.350;9.222;2022-09-17T01:51:34;100079.47;;;21.16;100.00
32324;BME280;25666;44.350;9.222;2022-09-17T01:54:09;100067.06;;;21.10;100.00
32324;BME280;25666;44.350;9.222;2022-09-17T01:56:49;100069.59;;;21.05;100.00
32324;BME280;25666;44.350;9.222;2022-09-17T01:59:23;100072.28;;;21.12;100.00
32324;BME280;25666;44.350;9.222;2022-09-17T02:01:53;100078.56;;;21.00;100.00
32324;BME280;25666;44.350;9.222;2022-09-17T02:04:29;100073.94;;;21.09;100.00
32324;BME280;25666;44.350;9.222;2022-09-17T02:07:02;100068.13;;;20.97;100.00
32324;BME280;25666;44.350;9.222;2022-09-17T02:09:39;100060.16;;;20.92;100.00
32324;BME280;25666;44.350;9.222;2022-09-17T02:12:09;100058.13;;;21.12;100.00
32324;BME280;25666;44.350;9.222;2022-09-17T02:14:43;100067.41;;;20.93;100.00
32324;BME280;25666;44.350;9.222;2022-09-17T02:17:24;100070.97;;;20.77;100.00
32324;BME280;25666;44.350;9.222;2022-09-17T02:19:52;100068.94;;;20.77;100.00
32324;BME280;25666;44.350;9.222;2022-09-17T02:25:07;100076.94;;;20.63;100.00
32324;BME280;25666;44.350;9.222;2022-09-17T02:28:00;100071.56;;;20.68;100.00
32324;BME280;25666;44.350;9.222;2022-09-17T02:30:26;100072.28;;;20.53;100.00
32324;BME280;25666;44.350;9.222;2022-09-17T02:32:53;100078.50;;;20.44;100.00
32324;BME280;25666;44.350;9.222;2022-09-17T02:35:19;100076.06;;;20.23;100.00
32324;BME280;25666;44.350;9.222;2022-09-17T02:37:44;100075.69;;;20.21;100.00
32324;BME280;25666;44.350;9.222;2022-09-17T02:40:13;100071.97;;;20.27;100.00
32324;BME280;25666;44.350;9.222;2022-09-17T02:42:56;100069.63;;;20.22;100.00
32324;BME280;25666;44.350;9.222;2022-09-17T02:45:43;100064.16;;;20.35;100.00
32324;BME280;25666;44.350;9.222;2022-09-17T02:48:45;100065.19;;;20.45;100.00
32324;BME280;25666;44.350;9.222;2022-09-17T02:51:25;100052.03;;;20.74;100.00
32324;BME280;25666;44.350;9.222;2022-09-17T02:56:45;100052.31;;;20.99;100.00
32324;BME280;25666;44.350;9.222;2022-09-17T02:59:40;100058.09;;;20.76;100.00
32324;BME280;25666;44.350;9.222;2022-09-17T03:02:16;100059.09;;;20.46;100.00
32324;BME280;25666;44.350;9.222;2022-09-17T03:04:45;100049.97;;;20.39;100.00
32324;BME280;25666;44.350;9.222;2022-09-17T03:07:12;100060.81;;;20.40;100.00
32324;BME280;25666;44.350;9.222;2022-09-17T03:09:37;100063.94;;;20.65;100.00
32324;BME280;25666;44.350;9.222;2022-09-17T03:12:03;100054.59;;;20.68;100.00
32324;BME280;25666;44.350;9.222;2022-09-17T03:14:29;100048.22;;;20.21;100.00
32324;BME280;25666;44.350;9.222;2022-09-17T03:16:55;100055.38;;;20.29;100.00
32324;BME280;25666;44.350;9.222;2022-09-17T03:19:20;100055.91;;;20.21;100.00
32324;BME280;25666;44.350;9.222;2022-09-17T03:21:46;100057.78;;;20.08;100.00
32324;BME280;25666;44.350;9.222;2022-09-17T03:24:12;100053.41;;;20.03;100.00
32324;BME280;25666;44.350;9.222;2022-09-17T03:26:38;100047.75;;;20.03;100.00
32324;BME280;25666;44.350;9.222;2022-09-17T03:29:04;100051.63;;;20.13;100.00
32324;BME280;25666;44.350;9.222;2022-09-17T03:31:29;100045.81;;;20.00;100.00
32324;BME280;25666;44.350;9.222;2022-09-17T03:33:55;100046.59;;;20.01;100.00
32324;BME280;25666;44.350;9.222;2022-09-17T03:36:20;100044.84;;;20.30;100.00
32324;BME280;25666;44.350;9.222;2022-09-17T03:38:46;100031.22;;;20.64;100.00
32324;BME280;25666;44.350;9.222;2022-09-17T03:41:11;100023.38;;;20.92;100.00
32324;BME280;25666;44.350;9.222;2022-09-17T03:43:36;100017.47;;;21.02;100.00
32324;BME280;25666;44.350;9.222;2022-09-17T03:46:04;100013.16;;;20.98;100.00
32324;BME280;25666;44.350;9.222;2022-09-17T03:48:30;100013.53;;;20.80;100.00
32324;BME280;25666;44.350;9.222;2022-09-17T03:50:56;100016.59;;;20.50;100.00
32324;BME280;25666;44.350;9.222;2022-09-17T03:53:22;100028.69;;;20.30;100.00
32324;BME280;25666;44.350;9.222;2022-09-17T03:55:48;100014.75;;;20.20;100.00
32324;BME280;25666;44.350;9.222;2022-09-17T03:58:14;100015.97;;;20.42;100.00
32324;BME280;25666;44.350;9.222;2022-09-17T04:00:39;100009.34;;;20.68;100.00
32324;BME280;25666;44.350;9.222;2022-09-17T04:03:06;100007.88;;;20.80;100.00
32324;BME280;25666;44.350;9.222;2022-09-17T04:05:31;100008.41;;;20.75;100.00
32324;BME280;25666;44.350;9.222;2022-09-17T04:07:57;100000.63;;;20.79;100.00
32324;BME280;25666;44.350;9.222;2022-09-17T04:10:23;99998.53;;;20.83;100.00
32324;BME280;25666;44.350;9.222;2022-09-17T04:12:48;99997.81;;;20.59;100.00
32324;BME280;25666;44.350;9.222;2022-09-17T04:15:14;100013.34;;;20.32;100.00
32324;BME280;25666;44.350;9.222;2022-09-17T04:17:39;100022.16;;;19.91;100.00
32324;BME280;25666;44.350;9.222;2022-09-17T04:20:05;100024.06;;;19.74;100.00
32324;BME280;25666;44.350;9.222;2022-09-17T04:22:31;100036.84;;;19.82;100.00
32324;BME280;25666;44.350;9.222;2022-09-17T04:24:57;100026.44;;;19.99;100.00
32324;BME280;25666;44.350;9.222;2022-09-17T04:27:22;100032.19;;;20.15;100.00
32324;BME280;25666;44.350;9.222;2022-09-17T04:29:48;100027.94;;;20.07;100.00
32324;BME280;25666;44.350;9.222;2022-09-17T04:32:13;100022.75;;;20.02;100.00
32324;BME280;25666;44.350;9.222;2022-09-17T04:34:39;100016.09;;;19.92;100.00
32324;BME280;25666;44.350;9.222;2022-09-17T04:37:04;100005.97;;;19.95;100.00
32324;BME280;25666;44.350;9.222;2022-09-17T04:39:30;100018.38;;;19.77;100.00
32324;BME280;25666;44.350;9.222;2022-09-17T04:41:55;100011.63;;;19.95;100.00
32324;BME280;25666;44.350;9.222;2022-09-17T04:44:21;100013.16;;;19.76;100.00
32324;BME280;25666;44.350;9.222;2022-09-17T04:46:46;100001.03;;;19.99;100.00
32324;BME280;25666;44.350;9.222;2022-09-17T04:49:12;100001.34;;;20.24;100.00
32324;BME280;25666;44.350;9.222;2022-09-17T04:51:37;100011.75;;;20.30;100.00
32324;BME280;25666;44.350;9.222;2022-09-17T04:54:03;100012.41;;;20.38;100.00
32324;BME280;25666;44.350;9.222;2022-09-17T04:56:29;100010.00;;;20.37;100.00
32324;BME280;25666;44.350;9.222;2022-09-17T04:58:54;100007.25;;;20.53;100.00
32324;BME280;25666;44.350;9.222;2022-09-17T05:01:20;100004.00;;;20.54;100.00
32324;BME280;25666;44.350;9.222;2022-09-17T05:03:45;100003.81;;;20.61;100.00
32324;BME280;25666;44.350;9.222;2022-09-17T05:06:11;99994.91;;;20.82;100.00
32324;BME280;25666;44.350;9.222;2022-09-17T05:08:36;100002.19;;;21.00;100.00
32324;BME280;25666;44.350;9.222;2022-09-17T05:11:02;99998.03;;;21.04;100.00
32324;BME280;25666;44.350;9.222;2022-09-17T05:13:28;99996.91;;;21.02;100.00
32324;BME280;25666;44.350;9.222;2022-09-17T05:15:54;99991.91;;;21.25;100.00
32324;BME280;25666;44.350;9.222;2022-09-17T05:18:21;99997.81;;;21.31;100.00
32324;BME280;25666;44.350;9.222;2022-09-17T05:20:47;99993.06;;;21.44;100.00
32324;BME280;25666;44.350;9.222;2022-09-17T05:23:12;99995.63;;;21.55;100.00
32324;BME280;25666;44.350;9.222;2022-09-17T05:25:38;100002.34;;;21.61;100.00
32324;BME280;25666;44.350;9.222;2022-09-17T05:28:04;100008.00;;;21.77;99.07
32324;BME280;25666;44.350;9.222;2022-09-17T05:30:30;99990.22;;;21.93;93.61
32324;BME280;25666;44.350;9.222;2022-09-17T05:32:59;99983.00;;;22.04;89.05
32324;BME280;25666;44.350;9.222;2022-09-17T05:35:25;99985.19;;;22.13;87.49
32324;BME280;25666;44.350;9.222;2022-09-17T05:37:50;99994.34;;;22.04;92.64
32324;BME280;25666;44.350;9.222;2022-09-17T05:40:20;99987.31;;;22.09;99.41
32324;BME280;25666;44.350;9.222;2022-09-17T05:42:45;99993.28;;;22.14;89.75
32324;BME280;25666;44.350;9.222;2022-09-17T05:45:11;100002.13;;;22.16;100.00
32324;BME280;25666;44.350;9.222;2022-09-17T05:47:37;100001.91;;;21.95;100.00
32324;BME280;25666;44.350;9.222;2022-09-17T05:50:02;100004.41;;;21.93;100.00
32324;BME280;25666;44.350;9.222;2022-09-17T05:52:28;100014.81;;;21.79;99.05
32324;BME280;25666;44.350;9.222;2022-09-17T05:54:54;100010.22;;;22.02;87.41
32324;BME280;25666;44.350;9.222;2022-09-17T05:57:20;100023.28;;;22.12;100.00
32324;BME280;25666;44.350;9.222;2022-09-17T05:59:46;100030.47;;;22.00;100.00
32324;BME280;25666;44.350;9.222;2022-09-17T06:02:14;100032.03;;;21.88;100.00
32324;BME280;25666;44.350;9.222;2022-09-17T06:04:40;100022.44;;;21.82;100.00
32324;BME280;25666;44.350;9.222;2022-09-17T06:07:06;100033.75;;;21.82;100.00
32324;BME280;25666;44.350;9.222;2022-09-17T06:09:36;100030.47;;;21.68;100.00
32324;BME280;25666;44.350;9.222;2022-09-17T06:12:03;100031.38;;;21.65;100.00
32324;BME280;25666;44.350;9.222;2022-09-17T06:14:29;100025.81;;;21.94;100.00
32324;BME280;25666;44.350;9.222;2022-09-17T06:16:55;100016.88;;;21.95;100.00
32324;BME280;25666;44.350;9.222;2022-09-17T06:19:21;100022.06;;;21.97;100.00
32324;BME280;25666;44.350;9.222;2022-09-17T06:21:46;100035.94;;;23.94;96.65
32324;BME280;25666;44.350;9.222;2022-09-17T06:24:12;100030.25;;;23.94;64.93
32324;BME280;25666;44.350;9.222;2022-09-17T06:26:37;100020.75;;;23.25;73.16
32324;BME280;25666;44.350;9.222;2022-09-17T06:29:03;100021.72;;;26.32;73.60
32324;BME280;25666;44.350;9.222;2022-09-17T06:31:29;100016.25;;;25.70;82.38
32324;BME280;25666;44.350;9.222;2022-09-17T06:33:55;100029.03;;;23.83;61.84
32324;BME280;25666;44.350;9.222;2022-09-17T06:36:21;100025.88;;;23.56;66.42
32324;BME280;25666;44.350;9.222;2022-09-17T06:38:47;100037.91;;;23.60;65.98
32324;BME280;25666;44.350;9.222;2022-09-17T06:41:12;100042.16;;;23.42;76.41
32324;BME280;25666;44.350;9.222;2022-09-17T06:43:39;100048.69;;;23.14;87.63
32324;BME280;25666;44.350;9.222;2022-09-17T06:46:05;100043.56;;;22.97;76.33
32324;BME280;25666;44.350;9.222;2022-09-17T06:48:33;100053.69;;;23.10;74.85
32324;BME280;25666;44.350;9.222;2022-09-17T06:51:07;100051.06;;;24.38;60.34
32324;BME280;25666;44.350;9.222;2022-09-17T06:53:34;100055.97;;;23.66;63.56
32324;BME280;25666;44.350;9.222;2022-09-17T06:56:02;100056.66;;;23.32;63.38
32324;BME280;25666;44.350;9.222;2022-09-17T06:58:28;100065.97;;;23.83;68.65
32324;BME280;25666;44.350;9.222;2022-09-17T07:00:57;100078.34;;;24.48;59.33
32324;BME280;25666;44.350;9.222;2022-09-17T07:03:24;100082.78;;;24.03;54.17
32324;BME280;25666;44.350;9.222;2022-09-17T07:05:49;100095.41;;;24.02;54.69
32324;BME280;25666;44.350;9.222;2022-09-17T07:08:15;100116.44;;;23.54;58.92
32324;BME280;25666;44.350;9.222;2022-09-17T07:10:40;100101.97;;;23.23;65.88
32324;BME280;25666;44.350;9.222;2022-09-17T07:13:06;100116.78;;;23.56;65.29
32324;BME280;25666;44.350;9.222;2022-09-17T07:15:31;100122.34;;;23.46;68.95
32324;BME280;25666;44.350;9.222;2022-09-17T07:17:57;100116.81;;;23.43;67.55
32324;BME280;25666;44.350;9.222;2022-09-17T07:20:24;100116.00;;;23.42;67.53
32324;BME280;25666;44.350;9.222;2022-09-17T07:22:56;100122.47;;;23.43;68.24
32324;BME280;25666;44.350;9.222;2022-09-17T07:25:23;100137.53;;;23.27;69.40
32324;BME280;25666;44.350;9.222;2022-09-17T07:27:49;100134.53;;;23.18;72.37
32324;BME280;25666;44.350;9.222;2022-09-17T07:30:15;100123.84;;;23.10;74.64
32324;BME280;25666;44.350;9.222;2022-09-17T07:32:40;100132.44;;;22.93;75.37
32324;BME280;25666;44.350;9.222;2022-09-17T07:35:06;100137.91;;;23.01;77.75
32324;BME280;25666;44.350;9.222;2022-09-17T07:37:32;100145.63;;;23.00;79.49
32324;BME280;25666;44.350;9.222;2022-09-17T07:39:57;100151.50;;;22.93;79.23
32324;BME280;25666;44.350;9.222;2022-09-17T07:42:23;100143.34;;;22.95;81.82
32324;BME280;25666;44.350;9.222;2022-09-17T07:44:48;100136.88;;;22.94;77.38
32324;BME280;25666;44.350;9.222;2022-09-17T07:47:14;100146.09;;;22.99;77.89
32324;BME280;25666;44.350;9.222;2022-09-17T07:49:39;100150.88;;;23.02;82.07
32324;BME280;25666;44.350;9.222;2022-09-17T07:52:05;100158.34;;;22.96;80.32
32324;BME280;25666;44.350;9.222;2022-09-17T07:54:34;100165.69;;;22.93;79.19
32324;BME280;25666;44.350;9.222;2022-09-17T07:57:01;100181.41;;;22.98;83.36
32324;BME280;25666;44.350;9.222;2022-09-17T07:59:27;100192.69;;;22.85;82.23
32324;BME280;25666;44.350;9.222;2022-09-17T08:01:53;100212.00;;;22.90;83.16
32324;BME280;25666;44.350;9.222;2022-09-17T08:04:18;100205.41;;;22.80;81.92
32324;BME280;25666;44.350;9.222;2022-09-17T08:06:44;100198.97;;;22.92;82.61
32324;BME280;25666;44.350;9.222;2022-09-17T08:09:13;100211.06;;;22.80;81.13
32324;BME280;25666;44.350;9.222;2022-09-17T08:11:40;100230.72;;;22.87;84.66
32324;BME280;25666;44.350;9.222;2022-09-17T08:14:12;100204.09;;;22.98;86.74
32324;BME280;25666;44.350;9.222;2022-09-17T08:16:39;100246.78;;;22.94;84.60
32324;BME280;25666;44.350;9.222;2022-09-17T08:19:04;100238.09;;;22.85;82.48
32324;BME280;25666;44.350;9.222;2022-09-17T08:21:30;100267.25;;;22.53;82.73
32324;BME280;25666;44.350;9.222;2022-09-17T08:23:55;100233.47;;;22.59;84.87
32324;BME280;25666;44.350;9.222;2022-09-17T08:26:22;100245.63;;;22.59;69.57
32324;BME280;25666;44.350;9.222;2022-09-17T08:28:51;100260.06;;;22.65;76.25
32324;BME280;25666;44.350;9.222;2022-09-17T08:31:21;100256.91;;;22.63;76.67
32324;BME280;25666;44.350;9.222;2022-09-17T08:33:47;100284.03;;;22.48;75.53
32324;BME280;25666;44.350;9.222;2022-09-17T08:36:14;100286.94;;;22.44;75.86
32324;BME280;25666;44.350;9.222;2022-09-17T08:38:41;100286.22;;;22.40;74.92
32324;BME280;25666;44.350;9.222;2022-09-17T08:46:24;100279.25;;;22.45;76.77
32324;BME280;25666;44.350;9.222;2022-09-17T08:49:19;100356.97;;;22.47;75.00
32324;BME280;25666;44.350;9.222;2022-09-17T08:59:59;100304.06;;;22.57;68.77
32324;BME280;25666;44.350;9.222;2022-09-17T09:02:47;100340.94;;;22.57;71.64
32324;BME280;25666;44.350;9.222;2022-09-17T09:05:25;100364.41;;;22.41;72.04
32324;BME280;25666;44.350;9.222;2022-09-17T09:08:01;100385.41;;;22.43;66.91
32324;BME280;25666;44.350;9.222;2022-09-17T09:10:46;100378.03;;;22.46;64.19
32324;BME280;25666;44.350;9.222;2022-09-17T09:13:16;100395.66;;;22.37;62.09
32324;BME280;25666;44.350;9.222;2022-09-17T09:15:46;100394.78;;;22.40;61.39
32324;BME280;25666;44.350;9.222;2022-09-17T09:18:21;100430.59;;;22.34;60.59
32324;BME280;25666;44.350;9.222;2022-09-17T09:21:08;100403.69;;;22.42;59.78
32324;BME280;25666;44.350;9.222;2022-09-17T09:23:59;100398.59;;;22.34;56.13
32324;BME280;25666;44.350;9.222;2022-09-17T09:29:40;100410.97;;;22.60;62.67
32324;BME280;25666;44.350;9.222;2022-09-17T09:35:00;100409.75;;;22.61;49.12
32324;BME280;25666;44.350;9.222;2022-09-17T09:37:30;100429.91;;;22.47;53.63
32324;BME280;25666;44.350;9.222;2022-09-17T09:42:43;100434.41;;;22.64;54.42
32324;BME280;25666;44.350;9.222;2022-09-17T09:45:20;100441.19;;;22.50;52.77
32324;BME280;25666;44.350;9.222;2022-09-17T09:48:21;100464.53;;;22.58;53.55
32324;BME280;25666;44.350;9.222;2022-09-17T09:51:26;100458.63;;;22.68;50.98
32324;BME280;25666;44.350;9.222;2022-09-17T09:56:57;100484.25;;;22.45;55.12
32324;BME280;25666;44.350;9.222;2022-09-17T09:59:27;100474.78;;;22.52;54.17
32324;BME280;25666;44.350;9.222;2022-09-17T10:01:53;100491.94;;;22.45;48.78
32324;BME280;25666;44.350;9.222;2022-09-17T10:04:22;100513.03;;;22.43;53.74
32324;BME280;25666;44.350;9.222;2022-09-17T10:06:54;100524.09;;;22.38;57.54
32324;BME280;25666;44.350;9.222;2022-09-17T10:09:24;100526.50;;;22.39;53.24
32324;BME280;25666;44.350;9.222;2022-09-17T10:14:30;100529.53;;;22.29;55.83
32324;BME280;25666;44.350;9.222;2022-09-17T10:17:18;100523.88;;;22.29;52.38
32324;BME280;25666;44.350;9.222;2022-09-17T10:20:11;100521.78;;;22.33;50.19
32324;BME280;25666;44.350;9.222;2022-09-17T10:22:39;100521.19;;;22.41;51.80
32324;BME280;25666;44.350;9.222;2022-09-17T10:25:22;100522.88;;;22.39;45.96
32324;BME280;25666;44.350;9.222;2022-09-17T10:27:49;100520.84;;;22.39;45.07
32324;BME280;25666;44.350;9.222;2022-09-17T10:30:16;100533.69;;;22.44;45.00
32324;BME280;25666;44.350;9.222;2022-09-17T10:32:42;100531.31;;;22.42;45.94
32324;BME280;25666;44.350;9.222;2022-09-17T10:37:46;100537.19;;;22.71;48.35
32324;BME280;25666;44.350;9.222;2022-09-17T10:45:38;100550.13;;;22.33;43.03
32324;BME280;25666;44.350;9.222;2022-09-17T10:48:16;100540.91;;;22.49;42.34
32324;BME280;25666;44.350;9.222;2022-09-17T10:50:49;100541.41;;;22.24;43.09
32324;BME280;25666;44.350;9.222;2022-09-17T10:53:17;100555.50;;;22.27;45.28
32324;BME280;25666;44.350;9.222;2022-09-17T10:56:08;100575.50;;;22.40;43.29
32324;BME280;25666;44.350;9.222;2022-09-17T11:01:41;100568.59;;;22.41;46.98
32324;BME280;25666;44.350;9.222;2022-09-17T11:04:19;100573.34;;;22.48;45.54
32324;BME280;25666;44.350;9.222;2022-09-17T11:09:42;100583.28;;;22.56;45.61
32324;BME280;25666;44.350;9.222;2022-09-17T11:15:10;100571.00;;;22.62;38.87
32324;BME280;25666;44.350;9.222;2022-09-17T11:25:46;100577.31;;;22.50;39.02
32324;BME280;25666;44.350;9.222;2022-09-17T11:31:57;100576.09;;;22.51;38.14
32324;BME280;25666;44.350;9.222;2022-09-17T11:34:21;100567.94;;;22.53;40.79
32324;BME280;25666;44.350;9.222;2022-09-17T11:37:39;100569.56;;;22.54;41.24
32324;BME280;25666;44.350;9.222;2022-09-17T11:39:48;100569.09;;;22.56;39.09
32324;BME280;25666;44.350;9.222;2022-09-17T11:42:39;100580.56;;;22.72;41.00
32324;BME280;25666;44.350;9.222;2022-09-17T11:45:15;100572.16;;;23.04;40.35
32324;BME280;25666;44.350;9.222;2022-09-17T11:47:57;100583.75;;;22.93;38.28
32324;BME280;25666;44.350;9.222;2022-09-17T11:50:25;100588.13;;;22.98;41.94
32324;BME280;25666;44.350;9.222;2022-09-17T11:53:24;100591.03;;;22.94;34.87
32324;BME280;25666;44.350;9.222;2022-09-17T11:55:57;100572.91;;;22.88;35.87
32324;BME280;25666;44.350;9.222;2022-09-17T11:58:37;100573.97;;;23.14;35.54
32324;BME280;25666;44.350;9.222;2022-09-17T12:01:11;100572.69;;;22.99;35.31
32324;BME280;25666;44.350;9.222;2022-09-17T12:03:43;100572.75;;;22.96;34.85
32324;BME280;25666;44.350;9.222;2022-09-17T12:06:16;100593.13;;;23.10;34.15
32324;BME280;25666;44.350;9.222;2022-09-17T12:08:54;100574.00;;;22.94;35.03
32324;BME280;25666;44.350;9.222;2022-09-17T12:11:56;100579.00;;;23.07;34.24
32324;BME280;25666;44.350;9.222;2022-09-17T12:14:52;100585.28;;;22.98;36.09
32324;BME280;25666;44.350;9.222;2022-09-17T12:17:23;100589.84;;;23.12;37.03
32324;BME280;25666;44.350;9.222;2022-09-17T12:19:58;100594.66;;;23.15;34.79
32324;BME280;25666;44.350;9.222;2022-09-17T12:22:29;100601.72;;;23.07;34.09
32324;BME280;25666;44.350;9.222;2022-09-17T12:24:56;100605.69;;;23.09;34.93
32324;BME280;25666;44.350;9.222;2022-09-17T12:30:15;100612.72;;;23.05;36.42
32324;BME280;25666;44.350;9.222;2022-09-17T12:41:22;100636.59;;;23.07;35.35
32324;BME280;25666;44.350;9.222;2022-09-17T12:52:02;100652.88;;;23.23;34.09
32324;BME280;25666;44.350;9.222;2022-09-17T13:00:12;100663.78;;;23.24;35.19
32324;BME280;25666;44.350;9.222;2022-09-17T13:02:43;100684.13;;;23.23;34.91
32324;BME280;25666;44.350;9.222;2022-09-17T13:13:40;100678.06;;;23.40;35.35
32324;BME280;25666;44.350;9.222;2022-09-17T13:21:40;100676.53;;;23.16;35.68
32324;BME280;25666;44.350;9.222;2022-09-17T13:24:22;100686.34;;;23.31;34.76
32324;BME280;25666;44.350;9.222;2022-09-17T13:26:51;100680.91;;;23.21;33.40
32324;BME280;25666;44.350;9.222;2022-09-17T13:40:29;100689.44;;;23.40;32.07
32324;BME280;25666;44.350;9.222;2022-09-17T13:42:58;100687.00;;;23.39;33.18
32324;BME280;25666;44.350;9.222;2022-09-17T13:45:31;100689.84;;;23.39;32.01
32324;BME280;25666;44.350;9.222;2022-09-17T13:48:01;100695.22;;;23.53;32.49
32324;BME280;25666;44.350;9.222;2022-09-17T13:50:32;100704.84;;;23.59;32.50
32324;BME280;25666;44.350;9.222;2022-09-17T13:55:42;100693.38;;;23.27;31.79
32324;BME280;25666;44.350;9.222;2022-09-17T14:01:03;100708.09;;;23.41;31.81
32324;BME280;25666;44.350;9.222;2022-09-17T14:35:46;100729.19;;;23.40;31.00
32324;BME280;25666;44.350;9.222;2022-09-17T14:41:00;100727.53;;;23.43;31.13
32324;BME280;25666;44.350;9.222;2022-09-17T14:43:42;100721.94;;;23.39;32.90
32324;BME280;25666;44.350;9.222;2022-09-17T14:48:42;100718.75;;;23.34;30.57
32324;BME280;25666;44.350;9.222;2022-09-17T14:53:46;100735.31;;;23.39;29.32
32324;BME280;25666;44.350;9.222;2022-09-17T14:56:19;100721.06;;;23.42;30.31
32324;BME280;25666;44.350;9.222;2022-09-17T14:58:49;100727.16;;;23.41;29.59
32324;BME280;25666;44.350;9.222;2022-09-17T15:01:25;100718.69;;;23.37;29.54
32324;BME280;25666;44.350;9.222;2022-09-17T15:04:29;100720.16;;;23.26;29.71
32324;BME280;25666;44.350;9.222;2022-09-17T15:07:08;100728.81;;;23.38;31.38
32324;BME280;25666;44.350;9.222;2022-09-17T15:09:36;100735.09;;;23.50;29.70
32324;BME280;25666;44.350;9.222;2022-09-17T15:12:02;100745.66;;;23.49;28.49
32324;BME280;25666;44.350;9.222;2022-09-17T15:14:31;100739.13;;;23.52;29.60
32324;BME280;25666;44.350;9.222;2022-09-17T15:16:59;100744.88;;;23.49;29.38
32324;BME280;25666;44.350;9.222;2022-09-17T15:19:30;100739.25;;;23.45;28.54
32324;BME280;25666;44.350;9.222;2022-09-17T15:22:13;100741.75;;;23.43;29.17
32324;BME280;25666;44.350;9.222;2022-09-17T15:24:51;100749.50;;;23.39;29.09
32324;BME280;25666;44.350;9.222;2022-09-17T15:29:49;100748.59;;;23.45;28.91
32324;BME280;25666;44.350;9.222;2022-09-17T15:32:16;100756.94;;;23.53;26.95
32324;BME280;25666;44.350;9.222;2022-09-17T15:34:41;100762.25;;;23.51;27.84
32324;BME280;25666;44.350;9.222;2022-09-17T15:37:24;100759.88;;;23.49;28.95
32324;BME280;25666;44.350;9.222;2022-09-17T15:39:51;100772.81;;;23.50;28.25
32324;BME280;25666;44.350;9.222;2022-09-17T15:42:26;100762.09;;;23.38;28.20
32324;BME280;25666;44.350;9.222;2022-09-17T15:45:15;100762.41;;;23.43;28.22
32324;BME280;25666;44.350;9.222;2022-09-17T15:47:56;100760.44;;;23.40;28.86
32324;BME280;25666;44.350;9.222;2022-09-17T15:50:27;100762.63;;;23.33;29.06
32324;BME280;25666;44.350;9.222;2022-09-17T15:55:44;100775.59;;;23.54;28.86
32324;BME280;25666;44.350;9.222;2022-09-17T16:00:46;100779.59;;;23.36;27.33
32324;BME280;25666;44.350;9.222;2022-09-17T16:08:51;100785.34;;;23.33;28.03
32324;BME280;25666;44.350;9.222;2022-09-17T16:11:19;100793.34;;;23.38;28.17
32324;BME280;25666;44.350;9.222;2022-09-17T16:13:46;100793.47;;;23.31;28.04
32324;BME280;25666;44.350;9.222;2022-09-17T16:16:16;100791.72;;;23.37;28.65
32324;BME280;25666;44.350;9.222;2022-09-17T16:18:42;100791.84;;;23.33;27.89